Time;durP1;ratioP1;P1;durP2;ratioP2;P2;SDS_P1;SDS_P2;PMS_P1;PMS_P2;Temp;Humidity;BMP_temperature;BMP_pressure;BME280_temperature;BME280_humidity;BME280_pressure;Samples;Min_cycle;Max_cycle;Signal;HPM_P1;HPM_P2
2022/06/13 00:00:58;;;;;;;;;;;13.50;99.90;;;;;;5093375;28;19912;-79
2022/06/13 00:03:24;;;;;;;;;;;13.40;99.90;;;;;;5126541;27;19908;-78
2022/06/13 00:05:49;;;;;;;;;;;13.50;99.90;;;;;;5093351;28;19908;-79
2022/06/13 00:08:15;;;;;;;;;;;13.40;99.90;;;;;;5093201;28;19908;-78
2022/06/13 00:10:41;;;;;;;;;;;13.30;99.90;;;;;;5093706;28;19924;-79
2022/06/13 00:13:06;;;;;;;;;;;13.30;99.90;;;;;;5093088;28;19908;-78
2022/06/13 00:15:33;;;;;;;;;;;13.30;99.90;;;;;;5093510;28;19955;-77
2022/06/13 00:17:58;;;;;;;;;;;13.20;99.90;;;;;;5092919;28;19912;-77
2022/06/13 00:20:24;;;;;;;;;;;13.20;99.90;;;;;;5092991;28;20011;-77
2022/06/13 00:22:50;;;;;;;;;;;13.30;99.90;;;;;;5093467;28;19908;-77
2022/06/13 00:25:16;;;;;;;;;;;13.30;99.90;;;;;;5092756;28;19957;-77
2022/06/13 00:27:42;;;;;;;;;;;13.30;99.90;;;;;;5093172;28;19916;-77
2022/06/13 00:30:09;;;;;;;;;;;13.20;99.90;;;;;;5092542;28;19916;-77
2022/06/13 00:32:34;;;;;;;;;;;13.20;99.90;;;;;;5093138;28;20360;-77
2022/06/13 00:35:00;;;;;;;;;;;13.20;99.90;;;;;;5092767;28;19908;-77
2022/06/13 00:37:25;;;;;;;;;;;13.20;99.90;;;;;;5093352;28;20260;-78
2022/06/13 00:39:51;;;;;;;;;;;13.20;99.90;;;;;;5092520;28;19912;-77
2022/06/13 00:42:18;;;;;;;;;;;13.20;99.90;;;;;;5093022;28;19914;-78
2022/06/13 00:45:02;;;;;;;;;;;13.20;99.90;;;;;;5093143;28;19909;-78
2022/06/13 00:47:27;;;;;;;;;;;13.10;99.90;;;;;;5092991;28;19908;-78
2022/06/13 00:49:53;;;;;;;;;;;13.10;99.90;;;;;;5092545;28;20311;-76
2022/06/13 00:52:23;;;;;;;;;;;13.10;99.90;;;;;;5093019;28;20266;-78
2022/06/13 00:54:51;;;;;;;;;;;13.10;99.90;;;;;;5093554;28;19908;-78
2022/06/13 00:57:18;;;;;;;;;;;13.10;99.90;;;;;;5093030;28;19977;-77
2022/06/13 00:59:44;;;;;;;;;;;13.20;99.90;;;;;;5093437;28;19961;-77
2022/06/13 01:02:10;;;;;;;;;;;13.20;99.90;;;;;;5092911;28;19909;-78
2022/06/13 01:04:36;;;;;;;;;;;13.10;99.90;;;;;;5093315;28;20269;-77
2022/06/13 01:07:02;;;;;;;;;;;13.10;99.90;;;;;;5092369;28;19916;-77
2022/06/13 01:12:13;;;;;;;;;;;13.10;99.90;;;;;;5092534;28;19927;-77
2022/06/13 01:14:39;;;;;;;;;;;13.00;99.90;;;;;;5092852;28;20357;-77
2022/06/13 01:17:07;;;;;;;;;;;13.00;99.90;;;;;;5092390;28;19995;-77
2022/06/13 01:19:51;;;;;;;;;;;13.00;99.90;;;;;;5093050;28;20370;-77
2022/06/13 01:22:23;;;;;;;;;;;13.00;99.90;;;;;;5091096;28;19908;-77
2022/06/13 01:25:11;;;;;;;;;;;13.00;99.90;;;;;;5093165;28;19915;-77
2022/06/13 01:27:37;;;;;;;;;;;13.00;99.90;;;;;;5093989;28;19912;-78
2022/06/13 01:30:32;;;;;;;;;;;13.00;99.90;;;;;;5109749;28;19950;-77
2022/06/13 01:33:00;;;;;;;;;;;13.00;99.90;;;;;;5082782;28;20373;-76
2022/06/13 01:35:25;;;;;;;;;;;13.00;99.90;;;;;;5093799;28;19908;-78
2022/06/13 01:37:51;;;;;;;;;;;13.00;99.90;;;;;;5093352;28;19998;-77
2022/06/13 01:40:27;;;;;;;;;;;13.00;99.90;;;;;;5092444;28;19912;-78
2022/06/13 01:43:11;;;;;;;;;;;12.90;99.90;;;;;;5093051;28;19998;-78
2022/06/13 01:45:49;;;;;;;;;;;12.80;99.90;;;;;;5092960;28;20361;-77
2022/06/13 01:48:38;;;;;;;;;;;12.80;99.90;;;;;;5092470;28;19908;-77
2022/06/13 01:51:23;;;;;;;;;;;12.80;99.90;;;;;;5088800;28;19960;-77
2022/06/13 01:54:01;;;;;;;;;;;12.90;99.90;;;;;;5092008;28;19908;-77
2022/06/13 01:56:32;;;;;;;;;;;12.80;99.90;;;;;;5096953;28;19916;-77
2022/06/13 01:59:23;;;;;;;;;;;12.80;99.90;;;;;;5096377;28;19914;-76
2022/06/13 02:02:08;;;;;;;;;;;12.70;99.90;;;;;;5096642;28;19908;-77
2022/06/13 02:04:40;;;;;;;;;;;12.70;99.90;;;;;;5096585;28;20006;-77
2022/06/13 02:07:32;;;;;;;;;;;12.80;99.90;;;;;;5096192;28;19908;-77
2022/06/13 02:10:04;;;;;;;;;;;12.80;99.90;;;;;;5095340;28;19915;-76
2022/06/13 02:12:33;;;;;;;;;;;12.80;99.90;;;;;;5096207;28;19928;-77
2022/06/13 02:15:03;;;;;;;;;;;12.70;99.90;;;;;;5096326;28;19908;-76
2022/06/13 02:17:32;;;;;;;;;;;12.70;99.90;;;;;;5096611;28;19916;-77
2022/06/13 02:20:27;;;;;;;;;;;12.70;99.90;;;;;;5096242;28;19912;-76
2022/06/13 02:22:58;;;;;;;;;;;12.70;99.90;;;;;;5100799;28;19912;-77
2022/06/13 02:25:37;;;;;;;;;;;12.70;99.90;;;;;;5096174;28;19956;-78
2022/06/13 02:28:09;;;;;;;;;;;12.70;99.90;;;;;;5095634;28;19908;-77
2022/06/13 02:30:37;;;;;;;;;;;12.70;99.90;;;;;;5096131;28;19920;-77
2022/06/13 02:33:12;;;;;;;;;;;12.70;99.90;;;;;;5094374;28;19908;-77
2022/06/13 02:35:46;;;;;;;;;;;12.60;99.90;;;;;;5096305;28;19998;-77
2022/06/13 02:38:21;;;;;;;;;;;12.60;99.90;;;;;;5095475;28;19959;-77
2022/06/13 02:40:52;;;;;;;;;;;12.60;99.90;;;;;;5096170;28;19908;-77
2022/06/13 02:43:21;;;;;;;;;;;12.60;99.90;;;;;;5128590;27;20013;-78
2022/06/13 02:45:47;;;;;;;;;;;12.70;99.90;;;;;;5095793;28;19908;-77
2022/06/13 02:48:18;;;;;;;;;;;12.70;99.90;;;;;;5095176;28;20250;-77
2022/06/13 02:50:47;;;;;;;;;;;12.70;99.90;;;;;;5095680;28;19931;-77
2022/06/13 02:53:33;;;;;;;;;;;12.70;99.90;;;;;;5094880;28;19923;-77
2022/06/13 02:56:16;;;;;;;;;;;12.70;99.90;;;;;;5095884;28;19908;-77
2022/06/13 02:58:41;;;;;;;;;;;12.70;99.90;;;;;;5095523;28;20396;-77
2022/06/13 03:01:12;;;;;;;;;;;12.60;99.90;;;;;;5095116;28;20006;-76
2022/06/13 03:03:54;;;;;;;;;;;12.70;99.90;;;;;;5095031;28;19999;-77
2022/06/13 03:06:31;;;;;;;;;;;12.70;99.90;;;;;;5095094;28;20352;-77
2022/06/13 03:09:05;;;;;;;;;;;12.70;99.90;;;;;;5095549;28;19909;-77
2022/06/13 03:11:37;;;;;;;;;;;12.70;99.90;;;;;;5095309;28;19920;-77
2022/06/13 03:14:08;;;;;;;;;;;12.70;99.90;;;;;;5095162;28;19908;-76
2022/06/13 03:16:34;;;;;;;;;;;12.70;99.90;;;;;;5095452;28;19943;-77
2022/06/13 03:19:08;;;;;;;;;;;12.70;99.90;;;;;;5095065;28;19915;-77
2022/06/13 03:21:36;;;;;;;;;;;12.70;99.90;;;;;;5128005;27;19952;-77
2022/06/13 03:24:15;;;;;;;;;;;12.70;99.90;;;;;;5095171;28;19955;-78
2022/06/13 03:26:43;;;;;;;;;;;12.70;99.90;;;;;;5095148;28;19997;-77
2022/06/13 03:29:16;;;;;;;;;;;12.60;99.90;;;;;;5094306;28;19908;-77
2022/06/13 03:31:44;;;;;;;;;;;12.60;99.90;;;;;;5094745;28;20009;-77
2022/06/13 03:34:36;;;;;;;;;;;12.60;99.90;;;;;;5094560;28;19908;-77
2022/06/13 03:37:14;;;;;;;;;;;12.50;99.90;;;;;;5093752;28;19914;-77
2022/06/13 03:39:53;;;;;;;;;;;12.50;99.90;;;;;;5095046;28;20007;-77
2022/06/13 03:42:23;;;;;;;;;;;12.60;99.90;;;;;;5094023;28;19915;-77
2022/06/13 03:44:55;;;;;;;;;;;12.50;99.90;;;;;;5094883;28;19908;-77
2022/06/13 03:47:26;;;;;;;;;;;12.60;99.90;;;;;;5092708;28;19947;-77
2022/06/13 03:50:07;;;;;;;;;;;12.60;99.90;;;;;;5094606;28;19994;-77
2022/06/13 03:52:34;;;;;;;;;;;12.60;99.90;;;;;;5093134;28;19923;-77
2022/06/13 03:55:06;;;;;;;;;;;12.70;99.90;;;;;;5094340;28;19954;-77
2022/06/13 03:57:36;;;;;;;;;;;12.60;99.90;;;;;;5094705;28;19916;-77
2022/06/13 04:00:10;;;;;;;;;;;12.60;99.90;;;;;;5094746;28;19994;-78
2022/06/13 04:02:38;;;;;;;;;;;12.60;99.90;;;;;;5094740;28;19999;-78
2022/06/13 04:05:03;;;;;;;;;;;12.60;99.90;;;;;;5094322;28;19908;-78
2022/06/13 04:07:32;;;;;;;;;;;12.60;99.90;;;;;;5093722;28;19931;-78
2022/06/13 04:10:07;;;;;;;;;;;12.60;99.90;;;;;;5094294;28;20345;-78
2022/06/13 04:12:40;;;;;;;;;;;12.60;99.90;;;;;;5094322;28;19923;-77
2022/06/13 04:15:11;;;;;;;;;;;12.60;99.90;;;;;;5093201;28;19908;-77
2022/06/13 04:17:45;;;;;;;;;;;12.60;99.90;;;;;;5094021;28;19955;-78
2022/06/13 04:20:37;;;;;;;;;;;12.50;99.90;;;;;;5093985;28;19919;-77
2022/06/13 04:23:11;;;;;;;;;;;12.50;99.90;;;;;;5094157;28;19907;-78
2022/06/13 04:25:53;;;;;;;;;;;12.50;99.90;;;;;;5093749;28;19915;-78
2022/06/13 04:28:21;;;;;;;;;;;12.50;99.90;;;;;;5093898;28;19916;-78
2022/06/13 04:30:48;;;;;;;;;;;12.50;99.90;;;;;;5092299;28;19927;-78
2022/06/13 04:33:16;;;;;;;;;;;12.50;99.90;;;;;;5093148;28;20377;-77
2022/06/13 04:35:42;;;;;;;;;;;12.60;99.90;;;;;;5093590;28;20002;-78
2022/06/13 04:38:10;;;;;;;;;;;12.60;99.90;;;;;;5093500;28;19912;-77
2022/06/13 04:40:38;;;;;;;;;;;12.60;99.90;;;;;;5093764;28;19915;-78
2022/06/13 04:43:06;;;;;;;;;;;12.60;99.90;;;;;;5093514;28;19987;-78
2022/06/13 04:45:37;;;;;;;;;;;12.60;99.90;;;;;;5091898;28;20234;-78
2022/06/13 04:48:02;;;;;;;;;;;12.60;99.90;;;;;;5093855;28;19908;-78
2022/06/13 04:50:39;;;;;;;;;;;12.50;99.90;;;;;;5092853;28;19933;-78
2022/06/13 04:53:06;;;;;;;;;;;12.50;99.90;;;;;;5093574;28;19953;-78
2022/06/13 04:55:41;;;;;;;;;;;12.60;99.90;;;;;;5092839;28;19916;-78
2022/06/13 04:58:30;;;;;;;;;;;12.60;99.90;;;;;;5093576;28;19908;-78
2022/06/13 05:01:14;;;;;;;;;;;12.60;99.90;;;;;;5090048;28;19914;-78
2022/06/13 05:03:42;;;;;;;;;;;12.60;99.90;;;;;;5093591;28;19908;-78
2022/06/13 05:06:24;;;;;;;;;;;12.60;99.90;;;;;;5091838;28;19911;-78
2022/06/13 05:08:58;;;;;;;;;;;12.50;99.90;;;;;;5093549;28;20403;-78
2022/06/13 05:11:26;;;;;;;;;;;12.60;99.90;;;;;;5092788;28;20015;-77
2022/06/13 05:13:55;;;;;;;;;;;12.60;99.90;;;;;;5093576;28;19908;-78
2022/06/13 05:16:29;;;;;;;;;;;12.70;99.90;;;;;;5092693;28;19922;-77
2022/06/13 05:19:13;;;;;;;;;;;12.70;99.90;;;;;;5093124;28;19908;-78
2022/06/13 05:21:39;;;;;;;;;;;12.70;99.90;;;;;;5093281;28;20364;-78
2022/06/13 05:24:06;;;;;;;;;;;12.70;99.90;;;;;;5093087;28;19908;-77
2022/06/13 05:26:32;;;;;;;;;;;12.70;99.90;;;;;;5092121;28;20412;-77
2022/06/13 05:28:59;;;;;;;;;;;12.80;99.90;;;;;;5108272;28;19947;-78
2022/06/13 05:31:26;;;;;;;;;;;12.70;99.90;;;;;;5090808;28;20375;-77
2022/06/13 05:33:51;;;;;;;;;;;12.70;99.90;;;;;;5093035;28;19918;-78
2022/06/13 05:36:19;;;;;;;;;;;12.70;99.90;;;;;;5092196;28;19908;-77
2022/06/13 05:38:47;;;;;;;;;;;12.80;99.90;;;;;;5092710;28;20323;-77
2022/06/13 05:41:13;;;;;;;;;;;12.80;99.90;;;;;;5092535;28;19912;-76
2022/06/13 05:43:39;;;;;;;;;;;12.90;99.90;;;;;;5093212;28;20341;-78
2022/06/13 05:46:06;;;;;;;;;;;12.80;99.90;;;;;;5091786;28;19957;-77
2022/06/13 05:48:31;;;;;;;;;;;12.80;99.90;;;;;;5092349;28;19912;-77
2022/06/13 05:50:57;;;;;;;;;;;12.80;99.90;;;;;;5092804;28;20411;-77
2022/06/13 05:53:23;;;;;;;;;;;12.80;99.90;;;;;;5092189;28;19909;-77
2022/06/13 05:55:49;;;;;;;;;;;12.90;99.90;;;;;;5092567;28;19961;-77
2022/06/13 05:58:16;;;;;;;;;;;12.90;99.90;;;;;;5092459;28;20367;-76
2022/06/13 06:00:46;;;;;;;;;;;12.90;99.90;;;;;;5092604;28;20322;-77
2022/06/13 06:03:12;;;;;;;;;;;13.00;99.90;;;;;;5092313;28;20357;-78
2022/06/13 06:05:38;;;;;;;;;;;13.00;99.90;;;;;;5092490;28;20041;-77
2022/06/13 06:08:05;;;;;;;;;;;13.10;99.90;;;;;;5092610;28;20381;-78
2022/06/13 06:10:32;;;;;;;;;;;13.10;99.90;;;;;;5092080;28;19912;-77
2022/06/13 06:12:58;;;;;;;;;;;13.20;99.90;;;;;;5092354;28;19919;-77
2022/06/13 06:15:23;;;;;;;;;;;13.20;99.90;;;;;;5090817;28;20272;-77
2022/06/13 06:17:49;;;;;;;;;;;13.20;99.90;;;;;;5091341;28;19908;-77
2022/06/13 06:20:16;;;;;;;;;;;13.20;99.90;;;;;;5090905;28;19990;-76
2022/06/13 06:22:42;;;;;;;;;;;13.20;99.90;;;;;;5108035;28;20349;-76
2022/06/13 06:25:08;;;;;;;;;;;13.20;99.90;;;;;;5092455;28;19926;-77
2022/06/13 06:27:33;;;;;;;;;;;13.30;99.90;;;;;;5091683;28;19908;-76
2022/06/13 06:29:59;;;;;;;;;;;13.40;99.90;;;;;;5092264;28;20428;-76
2022/06/13 06:32:25;;;;;;;;;;;13.40;99.90;;;;;;5091826;28;20019;-76
2022/06/13 06:34:50;;;;;;;;;;;13.50;99.90;;;;;;5092478;28;19912;-78
2022/06/13 06:37:16;;;;;;;;;;;13.60;99.90;;;;;;5092260;28;19912;-75
2022/06/13 06:39:41;;;;;;;;;;;13.60;99.90;;;;;;5098706;28;19908;-76
2022/06/13 06:42:07;;;;;;;;;;;13.60;99.90;;;;;;5095993;28;19954;-77
2022/06/13 06:44:33;;;;;;;;;;;13.70;99.90;;;;;;5094013;28;19962;-77
2022/06/13 06:46:58;;;;;;;;;;;13.70;99.90;;;;;;5096238;28;19908;-77
2022/06/13 06:49:24;;;;;;;;;;;13.80;99.90;;;;;;5095181;28;19908;-76
2022/06/13 06:51:49;;;;;;;;;;;13.90;99.90;;;;;;5095574;28;20349;-76
2022/06/13 06:59:55;;;;;;;;;;;14.10;99.90;;;;;;5095600;28;19966;-76
2022/06/13 07:02:24;;;;;;;;;;;14.10;99.90;;;;;;5095086;28;19923;-75
2022/06/13 07:04:51;;;;;;;;;;;14.20;99.90;;;;;;5095702;28;20387;-76
2022/06/13 07:07:17;;;;;;;;;;;14.30;99.90;;;;;;5094238;28;19908;-76
2022/06/13 07:09:42;;;;;;;;;;;14.40;99.90;;;;;;5127823;27;19939;-76
2022/06/13 07:12:08;;;;;;;;;;;14.50;99.90;;;;;;5095212;28;20394;-76
2022/06/13 07:14:35;;;;;;;;;;;14.60;99.90;;;;;;5092446;28;19908;-75
2022/06/13 07:17:02;;;;;;;;;;;14.70;99.90;;;;;;5095245;28;20050;-75
2022/06/13 07:19:28;;;;;;;;;;;14.90;99.90;;;;;;5094598;28;20094;-76
2022/06/13 07:21:53;;;;;;;;;;;15.00;99.90;;;;;;5093877;28;19978;-77
2022/06/13 07:24:20;;;;;;;;;;;15.10;99.90;;;;;;5094283;28;19915;-76
2022/06/13 07:26:46;;;;;;;;;;;15.10;99.90;;;;;;5093982;28;20356;-76
2022/06/13 07:29:12;;;;;;;;;;;15.20;99.90;;;;;;5091608;28;19915;-76
2022/06/13 07:31:40;;;;;;;;;;;15.30;99.90;;;;;;5092133;28;19920;-76
2022/06/13 07:34:07;;;;;;;;;;;15.20;99.90;;;;;;5092324;28;20277;-76
2022/06/13 07:36:33;;;;;;;;;;;15.30;99.90;;;;;;5092444;28;19931;-76
2022/06/13 07:38:58;;;;;;;;;;;15.40;99.90;;;;;;5093931;28;19939;-76
2022/06/13 07:41:25;;;;;;;;;;;15.50;99.90;;;;;;5094099;28;20210;-76
2022/06/13 07:43:51;;;;;;;;;;;15.50;99.90;;;;;;5096558;28;19930;-77
2022/06/13 07:46:17;;;;;;;;;;;15.50;99.90;;;;;;5101877;28;19915;-76
2022/06/13 07:48:47;;;;;;;;;;;15.40;99.90;;;;;;5099292;28;19908;-76
2022/06/13 07:51:13;;;;;;;;;;;15.40;99.90;;;;;;5101249;28;19920;-76
2022/06/13 07:53:39;;;;;;;;;;;15.50;99.90;;;;;;5093837;28;20258;-76
2022/06/13 07:56:04;;;;;;;;;;;15.40;99.90;;;;;;5093581;28;19914;-76
2022/06/13 07:58:32;;;;;;;;;;;15.40;99.90;;;;;;5093247;28;19915;-76
2022/06/13 08:00:57;;;;;;;;;;;15.60;99.90;;;;;;5094439;28;19908;-76
2022/06/13 08:03:24;;;;;;;;;;;15.70;99.90;;;;;;5093742;28;19954;-75
2022/06/13 08:05:50;;;;;;;;;;;15.80;99.90;;;;;;5094009;28;19954;-77
2022/06/13 08:08:16;;;;;;;;;;;15.90;99.90;;;;;;5094121;28;19961;-76
2022/06/13 08:10:43;;;;;;;;;;;15.90;99.90;;;;;;5093567;28;20541;-76
2022/06/13 08:13:11;;;;;;;;;;;16.00;99.90;;;;;;5095409;28;19916;-76
2022/06/13 08:15:37;;;;;;;;;;;16.00;99.90;;;;;;5092152;28;19947;-76
2022/06/13 08:18:03;;;;;;;;;;;15.90;99.90;;;;;;5093246;28;19908;-76
2022/06/13 08:20:28;;;;;;;;;;;15.80;99.90;;;;;;5093492;28;20383;-75
2022/06/13 08:22:55;;;;;;;;;;;15.90;99.90;;;;;;5093015;28;19915;-77
2022/06/13 08:25:29;;;;;;;;;;;15.90;99.90;;;;;;5093401;28;19915;-76
2022/06/13 08:27:55;;;;;;;;;;;15.90;99.90;;;;;;5092734;28;19955;-77
2022/06/13 08:30:21;;;;;;;;;;;15.80;99.90;;;;;;5092517;28;20334;-76
2022/06/13 08:32:47;;;;;;;;;;;15.80;99.90;;;;;;5092569;28;19912;-75
2022/06/13 08:35:14;;;;;;;;;;;15.80;99.90;;;;;;5092718;28;19912;-76
2022/06/13 08:37:40;;;;;;;;;;;15.80;99.90;;;;;;5091860;28;19908;-76
2022/06/13 08:40:05;;;;;;;;;;;15.80;99.90;;;;;;5092450;28;19916;-76
2022/06/13 08:42:50;;;;;;;;;;;15.80;99.90;;;;;;5093035;28;19935;-76
2022/06/13 08:45:17;;;;;;;;;;;15.90;99.90;;;;;;5093151;28;20277;-76
2022/06/13 08:47:44;;;;;;;;;;;15.90;99.90;;;;;;5092795;28;20003;-76
2022/06/13 08:50:28;;;;;;;;;;;15.90;99.90;;;;;;5092230;28;19978;-76
2022/06/13 08:52:57;;;;;;;;;;;16.10;99.90;;;;;;5091954;28;19916;-76
2022/06/13 08:55:30;;;;;;;;;;;16.10;99.90;;;;;;5091804;28;19916;-76
2022/06/13 08:57:58;;;;;;;;;;;16.10;99.90;;;;;;5092602;28;19927;-77
2022/06/13 09:00:26;;;;;;;;;;;16.10;99.90;;;;;;5091561;28;20380;-76
2022/06/13 09:03:06;;;;;;;;;;;16.10;99.90;;;;;;5092353;28;20384;-76
2022/06/13 09:05:38;;;;;;;;;;;16.20;99.90;;;;;;5091917;28;19908;-76
2022/06/13 09:08:18;;;;;;;;;;;16.40;99.90;;;;;;5093144;28;20238;-76
2022/06/13 09:10:53;;;;;;;;;;;16.50;99.90;;;;;;5092244;28;19916;-76
2022/06/13 09:13:18;;;;;;;;;;;16.80;99.90;;;;;;5093092;28;19912;-77
2022/06/13 09:15:48;;;;;;;;;;;16.80;99.90;;;;;;5092242;28;19911;-76
2022/06/13 09:18:23;;;;;;;;;;;17.10;99.90;;;;;;5092804;28;19915;-76
2022/06/13 09:20:57;;;;;;;;;;;17.20;99.90;;;;;;5092206;28;19981;-76
2022/06/13 09:23:23;;;;;;;;;;;17.20;99.90;;;;;;5091706;28;19914;-77
2022/06/13 09:26:02;;;;;;;;;;;17.10;99.90;;;;;;5090851;28;19908;-77
2022/06/13 09:28:36;;;;;;;;;;;17.00;99.90;;;;;;5091686;28;19915;-76
2022/06/13 09:31:14;;;;;;;;;;;17.00;99.90;;;;;;5092401;28;19924;-77
2022/06/13 09:33:43;;;;;;;;;;;17.00;99.90;;;;;;5092066;28;20006;-77
2022/06/13 09:36:14;;;;;;;;;;;16.90;99.90;;;;;;5092736;28;19912;-77
2022/06/13 09:38:43;;;;;;;;;;;16.80;99.90;;;;;;5090977;28;19908;-76
2022/06/13 09:41:17;;;;;;;;;;;16.70;99.90;;;;;;5092616;28;19930;-76
2022/06/13 09:43:46;;;;;;;;;;;16.60;99.90;;;;;;5092062;28;19908;-76
2022/06/13 09:46:17;;;;;;;;;;;16.30;99.90;;;;;;5092692;28;19981;-77
2022/06/13 09:48:54;;;;;;;;;;;16.30;99.90;;;;;;5079063;28;20015;-77
2022/06/13 09:51:21;;;;;;;;;;;16.20;99.90;;;;;;5072498;28;19959;-77
2022/06/13 09:53:52;;;;;;;;;;;16.10;99.90;;;;;;5071617;28;19908;-77
2022/06/13 09:56:30;;;;;;;;;;;16.00;99.90;;;;;;5072419;28;19908;-77
2022/06/13 09:58:58;;;;;;;;;;;16.00;99.90;;;;;;5072129;28;19909;-77
2022/06/13 10:01:29;;;;;;;;;;;15.90;99.90;;;;;;5072057;28;20377;-78
2022/06/13 10:03:57;;;;;;;;;;;15.90;99.90;;;;;;5072216;28;19915;-77
2022/06/13 10:06:27;;;;;;;;;;;15.90;99.90;;;;;;5072290;28;19954;-77
2022/06/13 10:09:00;;;;;;;;;;;16.00;99.90;;;;;;5071078;28;19908;-77
2022/06/13 10:11:37;;;;;;;;;;;16.00;99.90;;;;;;5072023;28;19917;-76
2022/06/13 10:14:11;;;;;;;;;;;16.00;99.90;;;;;;5072562;28;20003;-76
2022/06/13 10:16:36;;;;;;;;;;;16.10;99.90;;;;;;5075295;28;19952;-77
2022/06/13 10:19:17;;;;;;;;;;;16.30;99.90;;;;;;5075594;28;19952;-77
2022/06/13 10:21:45;;;;;;;;;;;16.40;99.90;;;;;;5075185;28;19909;-76
2022/06/13 10:24:19;;;;;;;;;;;16.40;99.90;;;;;;5075943;28;20015;-77
2022/06/13 10:26:47;;;;;;;;;;;16.50;99.90;;;;;;5075293;28;19908;-77
2022/06/13 10:29:21;;;;;;;;;;;16.60;99.90;;;;;;5075982;28;19958;-77
2022/06/13 10:32:06;;;;;;;;;;;16.70;99.90;;;;;;5075096;28;19968;-76
2022/06/13 10:34:34;;;;;;;;;;;16.70;99.90;;;;;;5074457;28;19913;-77
2022/06/13 10:36:59;;;;;;;;;;;16.80;99.90;;;;;;5076093;28;19909;-77
2022/06/13 10:39:26;;;;;;;;;;;16.70;99.90;;;;;;5075554;28;19954;-77
2022/06/13 10:41:53;;;;;;;;;;;16.70;99.90;;;;;;5074911;28;19919;-77
2022/06/13 10:44:19;;;;;;;;;;;16.70;99.90;;;;;;5075745;28;19916;-77
2022/06/13 10:46:49;;;;;;;;;;;16.80;99.90;;;;;;5074973;28;20341;-77
2022/06/13 10:49:17;;;;;;;;;;;16.90;99.90;;;;;;5075358;28;19931;-76
2022/06/13 10:51:45;;;;;;;;;;;16.90;99.90;;;;;;5073455;28;20058;-76
2022/06/13 10:54:13;;;;;;;;;;;16.90;99.90;;;;;;5075042;28;19913;-78
2022/06/13 10:56:41;;;;;;;;;;;16.90;99.90;;;;;;5083755;28;19908;-77
2022/06/13 10:59:20;;;;;;;;;;;17.00;99.90;;;;;;5117105;28;19908;-76
2022/06/13 11:01:58;;;;;;;;;;;17.00;99.90;;;;;;5115682;28;20416;-76
2022/06/13 11:04:24;;;;;;;;;;;16.90;99.90;;;;;;5116374;28;19909;-75
2022/06/13 11:06:53;;;;;;;;;;;16.90;99.90;;;;;;5115213;28;19908;-76
2022/06/13 11:09:34;;;;;;;;;;;16.80;99.90;;;;;;5115785;28;19915;-76
2022/06/13 11:12:01;;;;;;;;;;;16.80;99.90;;;;;;5115750;28;19961;-76
2022/06/13 11:22:37;;;;;;;;;;;16.70;99.90;;;;;;5106034;28;19914;-76
2022/06/13 11:22:59;;;;;;;;;;;16.70;99.90;;;;;;5094642;28;19915;-75
2022/06/13 11:25:32;;;;;;;;;;;16.80;99.90;;;;;;5094914;28;19914;-76
2022/06/13 11:28:02;;;;;;;;;;;16.80;99.90;;;;;;5094856;28;19908;-76
2022/06/13 11:30:30;;;;;;;;;;;16.80;99.90;;;;;;5094698;28;19920;-76
2022/06/13 11:33:04;;;;;;;;;;;16.80;99.90;;;;;;5093775;28;19916;-76
2022/06/13 11:35:29;;;;;;;;;;;16.70;99.90;;;;;;5094434;28;19908;-76
2022/06/13 11:37:55;;;;;;;;;;;16.70;99.90;;;;;;5093993;28;20002;-76
2022/06/13 11:40:25;;;;;;;;;;;16.60;99.90;;;;;;5094597;28;19953;-76
2022/06/13 11:42:51;;;;;;;;;;;16.60;99.90;;;;;;5093906;28;19962;-77
2022/06/13 11:45:22;;;;;;;;;;;16.60;99.90;;;;;;5094394;28;20497;-76
2022/06/13 11:47:49;;;;;;;;;;;16.40;99.90;;;;;;5093929;28;19943;-76
2022/06/13 11:50:18;;;;;;;;;;;16.40;99.90;;;;;;5094121;28;20296;-76
2022/06/13 11:55:30;;;;;;;;;;;16.30;99.90;;;;;;5093779;28;20369;-76
2022/06/13 11:58:00;;;;;;;;;;;16.40;99.90;;;;;;5093867;28;19935;-76
2022/06/13 12:00:29;;;;;;;;;;;16.40;99.90;;;;;;5093819;28;19908;-76
2022/06/13 12:02:57;;;;;;;;;;;16.50;99.90;;;;;;5093921;28;19904;-76
2022/06/13 12:05:22;;;;;;;;;;;16.60;99.90;;;;;;5094260;28;19909;-76
2022/06/13 12:07:52;;;;;;;;;;;16.80;99.90;;;;;;5092685;28;19912;-76
2022/06/13 12:10:20;;;;;;;;;;;17.00;99.90;;;;;;5093414;28;19984;-77
2022/06/13 12:12:45;;;;;;;;;;;17.10;99.90;;;;;;5090197;28;19970;-77
2022/06/13 12:15:12;;;;;;;;;;;17.20;99.90;;;;;;5092113;28;19941;-77
2022/06/13 12:17:39;;;;;;;;;;;17.20;99.90;;;;;;5092950;28;20380;-77
2022/06/13 12:20:11;;;;;;;;;;;17.30;99.90;;;;;;5091243;28;19912;-76
2022/06/13 12:22:36;;;;;;;;;;;17.40;99.90;;;;;;5093644;28;19908;-76
2022/06/13 12:25:03;;;;;;;;;;;17.50;99.90;;;;;;5094331;28;19908;-76
2022/06/13 12:27:31;;;;;;;;;;;17.40;99.90;;;;;;5093999;28;19908;-76
2022/06/13 12:29:56;;;;;;;;;;;17.40;99.90;;;;;;5092839;28;20246;-76
2022/06/13 12:32:27;;;;;;;;;;;17.50;99.90;;;;;;5093624;28;19923;-76
2022/06/13 12:34:52;;;;;;;;;;;17.60;99.90;;;;;;5093233;28;19908;-76
2022/06/13 12:37:18;;;;;;;;;;;17.70;99.90;;;;;;5093436;28;20298;-77
2022/06/13 12:39:50;;;;;;;;;;;17.60;99.90;;;;;;5093355;28;20331;-77
2022/06/13 12:42:25;;;;;;;;;;;17.50;99.90;;;;;;5093860;28;20325;-76
2022/06/13 12:45:09;;;;;;;;;;;17.60;99.90;;;;;;5093476;28;19995;-76
2022/06/13 12:47:46;;;;;;;;;;;17.50;99.90;;;;;;5093378;28;20269;-76
2022/06/13 12:50:33;;;;;;;;;;;17.50;99.90;;;;;;5093409;28;19912;-77
2022/06/13 12:53:18;;;;;;;;;;;17.50;99.90;;;;;;5092927;28;20027;-77
2022/06/13 12:55:53;;;;;;;;;;;17.70;99.90;;;;;;5092640;28;19915;-76
2022/06/13 12:58:39;;;;;;;;;;;17.70;99.90;;;;;;5093560;28;19912;-76
2022/06/13 13:01:10;;;;;;;;;;;17.80;99.90;;;;;;5093086;28;19912;-77
2022/06/13 13:03:53;;;;;;;;;;;17.80;99.90;;;;;;5093644;28;20003;-77
2022/06/13 13:06:19;;;;;;;;;;;18.00;99.90;;;;;;5093525;28;19943;-77
2022/06/13 13:09:10;;;;;;;;;;;18.20;99.90;;;;;;5093200;28;19947;-77
2022/06/13 13:11:55;;;;;;;;;;;18.20;99.90;;;;;;5093016;28;19916;-77
2022/06/13 13:14:40;;;;;;;;;;;18.30;99.90;;;;;;5093593;28;19908;-77
2022/06/13 13:17:12;;;;;;;;;;;18.30;99.90;;;;;;5092916;28;20340;-77
2022/06/13 13:19:48;;;;;;;;;;;18.40;99.90;;;;;;5092861;28;20410;-77
2022/06/13 13:22:43;;;;;;;;;;;18.30;99.90;;;;;;5092882;28;19908;-77
2022/06/13 13:25:24;;;;;;;;;;;18.30;99.90;;;;;;5087760;28;19908;-77
2022/06/13 13:27:55;;;;;;;;;;;18.00;99.90;;;;;;5092516;28;19908;-77
2022/06/13 13:30:33;;;;;;;;;;;18.00;99.90;;;;;;5093180;28;19924;-77
2022/06/13 13:33:04;;;;;;;;;;;17.80;99.90;;;;;;5092498;28;19927;-77
2022/06/13 13:35:39;;;;;;;;;;;17.70;99.90;;;;;;5093110;28;19908;-77
2022/06/13 13:38:13;;;;;;;;;;;17.60;99.90;;;;;;5092555;28;19912;-77
2022/06/13 13:40:52;;;;;;;;;;;17.50;99.90;;;;;;5092905;28;20006;-77
2022/06/13 13:43:21;;;;;;;;;;;17.50;99.90;;;;;;5093079;28;19908;-77
2022/06/13 13:45:49;;;;;;;;;;;17.40;99.90;;;;;;5092039;28;20428;-77
2022/06/13 13:48:21;;;;;;;;;;;17.40;99.90;;;;;;5095494;28;19954;-77
2022/06/13 13:50:50;;;;;;;;;;;17.30;99.90;;;;;;5095918;28;20289;-77
2022/06/13 13:53:18;;;;;;;;;;;17.20;99.90;;;;;;5097213;28;19940;-77
2022/06/13 13:55:49;;;;;;;;;;;17.20;99.90;;;;;;5096250;28;19912;-77
2022/06/13 13:58:41;;;;;;;;;;;17.20;99.90;;;;;;5096988;28;19934;-77
2022/06/13 14:01:22;;;;;;;;;;;17.40;99.90;;;;;;5094902;28;19999;-77
2022/06/13 14:03:48;;;;;;;;;;;17.50;99.90;;;;;;5095540;28;19908;-77
2022/06/13 14:06:25;;;;;;;;;;;17.70;99.90;;;;;;5096240;28;20272;-77
2022/06/13 14:08:53;;;;;;;;;;;17.70;99.90;;;;;;5095110;28;20004;-77
2022/06/13 14:11:19;;;;;;;;;;;17.80;99.90;;;;;;5096098;28;20010;-77
2022/06/13 14:13:45;;;;;;;;;;;17.80;99.90;;;;;;5095549;28;19908;-78
2022/06/13 14:16:23;;;;;;;;;;;17.80;99.90;;;;;;5108239;28;19908;-78
2022/06/13 14:18:52;;;;;;;;;;;17.70;99.90;;;;;;5112163;28;19908;-77
2022/06/13 14:21:37;;;;;;;;;;;17.60;99.90;;;;;;5097224;28;19965;-77
2022/06/13 14:24:19;;;;;;;;;;;17.50;99.90;;;;;;5096061;28;19904;-77
2022/06/13 14:26:45;;;;;;;;;;;17.40;99.90;;;;;;5095514;28;19908;-77
2022/06/13 14:29:10;;;;;;;;;;;17.30;99.90;;;;;;5095814;28;19964;-77
2022/06/13 14:31:55;;;;;;;;;;;17.30;99.90;;;;;;5095692;28;19965;-77
2022/06/13 14:37:23;;;;;;;;;;;17.40;99.90;;;;;;5095862;28;19978;-77
2022/06/13 14:40:00;;;;;;;;;;;17.40;99.90;;;;;;5094861;28;20349;-77
2022/06/13 14:42:38;;;;;;;;;;;17.40;99.90;;;;;;5095793;28;20273;-77
2022/06/13 14:45:17;;;;;;;;;;;17.30;99.90;;;;;;5094862;28;19912;-77
2022/06/13 14:47:48;;;;;;;;;;;17.20;99.90;;;;;;5095245;28;19912;-77
2022/06/13 14:50:34;;;;;;;;;;;17.30;99.90;;;;;;5094972;28;20441;-77
2022/06/13 14:53:18;;;;;;;;;;;17.30;99.90;;;;;;5092947;28;19916;-77
2022/06/13 14:56:04;;;;;;;;;;;17.40;99.90;;;;;;5094962;28;19911;-77
2022/06/13 14:58:45;;;;;;;;;;;17.50;99.90;;;;;;5094850;28;20006;-77